Terminal Aerodrome Forecast
Issued by NWS

Home | Current Version | Previous Version | Graphics & Text | Print | Product List | Glossary On
Versions: 1 2 3 4 5 6 7 8 9 10 11 12 13 14 15 16 17 18 19 20 21 22 23 24 25 26 27 28 29 30
670
FTUS43 KABR 052202 AAE
TAFMBG
TAF AMD
KMBG 052202Z 0522/0618 31024G37KT 1/4SM SN BLSN BKN012 OVC022
     FM052300 31026G36KT 2SM BLSN BR VCSH OVC020
     FM060100 30028G40KT P6SM OVC035
     FM060200 30027G38KT P6SM BKN035
     FM061000 30021G30KT P6SM BKN040=

USA.gov is the U.S. government's official web portal to all federal, state and local government web resources and services.